Time;durP1;ratioP1;P1;durP2;ratioP2;P2;SDS_P1;SDS_P2;PMS_P1;PMS_P2;Temp;Humidity;BMP_temperature;BMP_pressure;BME280_temperature;BME280_humidity;BME280_pressure;Samples;Min_cycle;Max_cycle;Signal;HPM_P1;HPM_P2
2022/06/01 00:00:30;;;;;;;5.40;4.00;;;;;;;16.09;52.96;100269.55;105840;1276;24421;-80
2022/06/01 00:02:58;;;;;;;7.00;4.00;;;;;;;16.12;53.11;100266.59;105665;1276;22525;-80
2022/06/01 00:05:26;;;;;;;4.90;4.20;;;;;;;16.14;53.23;100270.45;105854;1276;22558;-79
2022/06/01 00:07:53;;;;;;;5.90;4.10;;;;;;;16.16;53.62;100269.81;105761;1273;22545;-79
2022/06/01 00:10:20;;;;;;;3.90;3.50;;;;;;;16.15;53.88;100275.20;106377;1270;24244;-78
2022/06/01 00:12:46;;;;;;;6.20;4.00;;;;;;;16.04;53.98;100279.48;106362;1270;22846;-77
2022/06/01 00:15:15;;;;;;;5.80;4.20;;;;;;;15.92;54.23;100279.48;106324;1270;25647;-80
2022/06/01 00:17:42;;;;;;;5.20;4.00;;;;;;;15.85;54.83;100287.16;106347;1270;22612;-75
2022/06/01 00:20:10;;;;;;;4.80;4.00;;;;;;;15.75;55.50;100293.35;106317;1270;22758;-79
2022/06/01 00:22:37;;;;;;;4.60;3.90;;;;;;;15.64;56.66;100287.67;106372;1270;22683;-75
2022/06/01 00:25:07;;;;;;;5.00;4.40;;;;;;;15.52;57.21;100278.45;106328;1270;22762;-74
2022/06/01 00:27:36;;;;;;;4.20;3.80;;;;;;;15.39;57.82;100263.06;106278;1270;24241;-78
2022/06/01 00:30:06;;;;;;;4.60;4.20;;;;;;;15.29;58.28;100251.81;106259;1270;24772;-81
2022/06/01 00:32:34;;;;;;;5.20;4.70;;;;;;;15.24;59.12;100246.84;106640;1271;24122;-79
2022/06/01 00:35:03;;;;;;;5.00;4.60;;;;;;;15.22;59.90;100238.04;106432;1270;22701;-83
2022/06/01 00:37:30;;;;;;;5.40;4.40;;;;;;;15.14;60.50;100238.30;106225;1270;22525;-79
2022/06/01 00:39:57;;;;;;;5.20;4.70;;;;;;;15.11;61.12;100240.48;106389;1271;22546;-84
2022/06/01 00:42:29;;;;;;;5.70;5.00;;;;;;;15.15;61.58;100244.11;106563;1270;24299;-84
2022/06/01 00:44:57;;;;;;;6.00;4.60;;;;;;;15.15;62.29;100239.50;106259;1270;22524;-84
2022/06/01 00:47:25;;;;;;;6.90;5.50;;;;;;;15.18;63.09;100250.57;106190;1270;25295;-82
2022/06/01 00:50:04;;;;;;;5.90;4.70;;;;;;;15.16;63.59;100267.33;106311;1270;22649;-79
2022/06/01 00:52:38;;;;;;;6.10;5.50;;;;;;;15.10;64.42;100280.42;106184;1270;25239;-82
2022/06/01 00:55:11;;;;;;;6.20;5.20;;;;;;;14.93;65.11;100254.86;106207;1271;22570;-81
2022/06/01 00:57:39;;;;;;;7.00;5.10;;;;;;;14.78;65.66;100249.77;106332;1270;22725;-81
2022/06/01 01:00:20;;;;;;;6.60;5.60;;;;;;;14.63;66.36;100265.58;106420;1270;23136;-78
2022/06/01 01:02:49;;;;;;;8.60;6.00;;;;;;;14.61;66.97;100276.29;106333;1270;23976;-78
2022/06/01 01:05:17;;;;;;;7.10;6.30;;;;;;;14.55;67.52;100285.48;106408;1270;25203;-78
2022/06/01 01:07:45;;;;;;;9.20;6.00;;;;;;;14.50;68.12;100291.46;106454;1270;22525;-81
2022/06/01 01:10:15;;;;;;;8.90;6.30;;;;;;;14.48;68.56;100289.02;106316;1270;22520;-80
2022/06/01 01:13:04;;;;;;;7.80;6.10;;;;;;;14.49;68.77;100275.18;106303;1270;22566;-80
2022/06/01 01:15:52;;;;;;;8.80;6.20;;;;;;;14.45;69.37;100243.05;106296;1270;24419;-80
2022/06/01 01:18:33;;;;;;;8.40;6.90;;;;;;;14.48;70.11;100242.95;106281;1270;24321;-77
2022/06/01 01:21:07;;;;;;;8.60;6.40;;;;;;;14.58;70.30;100226.41;106310;1270;22528;-78
2022/06/01 01:23:50;;;;;;;7.40;6.60;;;;;;;14.61;70.35;100212.65;106334;1270;22851;-77
2022/06/01 01:26:18;;;;;;;10.10;6.70;;;;;;;14.67;70.59;100210.90;106223;1270;25241;-77
2022/06/01 01:28:45;;;;;;;6.10;5.10;;;;;;;14.66;70.45;100219.26;106149;1271;23374;-77
2022/06/01 01:31:18;;;;;;;5.10;4.60;;;;;;;14.51;70.45;100234.74;106169;1270;22551;-77
2022/06/01 01:33:47;;;;;;;4.20;3.70;;;;;;;14.39;70.81;100232.95;106196;1271;22697;-80
2022/06/01 01:36:17;;;;;;;6.30;4.60;;;;;;;14.20;71.46;100207.40;106306;1270;22551;-79
2022/06/01 01:38:53;;;;;;;5.90;4.50;;;;;;;14.13;71.72;100192.39;106265;1270;24382;-77
2022/06/01 01:41:26;;;;;;;;;;;;;;;14.14;72.12;100181.55;106324;1270;25372;-77
2022/06/01 01:44:23;;;;;;;5.20;4.00;;;;;;;14.25;72.37;100176.28;106309;1270;22537;-81
2022/06/01 01:46:50;;;;;;;7.80;5.10;;;;;;;14.36;72.60;100169.61;106345;1270;22527;-84
2022/06/01 01:49:23;;;;;;;8.70;4.80;;;;;;;14.39;72.46;100173.95;106365;1270;22541;-81
2022/06/01 01:51:58;;;;;;;5.70;5.20;;;;;;;14.44;72.56;100173.98;106567;1270;25219;-81
2022/06/01 01:54:46;;;;;;;5.40;4.90;;;;;;;14.52;72.49;100174.12;106422;1270;22521;-82
2022/06/01 01:57:23;;;;;;;6.20;4.20;;;;;;;14.56;72.45;100171.70;106480;1270;22525;-81
2022/06/01 01:59:57;;;;;;;4.40;3.90;;;;;;;14.53;72.17;100170.56;106420;1274;24380;-80
2022/06/01 02:02:40;;;;;;;7.10;4.40;;;;;;;14.57;72.26;100176.28;106705;1274;22536;-84
2022/06/01 02:08:18;;;;;;;4.60;4.20;;;;;;;14.69;72.46;100167.42;106368;1276;23269;-75
2022/06/01 02:13:33;;;;;;;3.80;3.40;;;;;;;14.73;72.39;100161.98;106418;1274;22547;-76
2022/06/01 02:16:01;;;;;;;4.20;3.30;;;;;;;14.72;72.21;100159.70;106619;1274;25627;-78
2022/06/01 02:18:33;;;;;;;3.90;3.60;;;;;;;14.79;72.05;100166.78;106629;1270;23071;-77
2022/06/01 02:21:09;;;;;;;4.60;4.10;;;;;;;14.82;72.11;100163.34;106707;1270;22552;-76
2022/06/01 02:23:37;;;;;;;6.50;4.30;;;;;;;14.84;72.39;100165.23;106558;1271;22521;-80
2022/06/01 02:26:04;;;;;;;5.60;4.40;;;;;;;14.87;72.27;100162.14;106976;1270;25239;-79
2022/06/01 02:28:32;;;;;;;4.50;4.10;;;;;;;14.86;72.17;100159.68;107033;1270;22519;-80
2022/06/01 02:31:00;;;;;;;4.70;3.90;;;;;;;14.84;72.21;100157.45;107141;1270;23192;-77
2022/06/01 02:33:33;;;;;;;3.60;3.30;;;;;;;14.83;72.17;100148.95;107902;1270;22957;-86
2022/06/01 02:36:03;;;;;;;3.40;3.10;;;;;;;14.86;72.18;100144.80;107809;1270;22592;-75
2022/06/01 02:38:41;;;;;;;4.90;3.50;;;;;;;14.87;72.15;100142.10;107184;1270;22543;-77
2022/06/01 02:42:25;;;;;;;5.00;3.30;;;;;;;14.90;72.16;100134.56;108329;1269;23885;-76
2022/06/01 02:43:56;;;;;;;4.70;3.50;;;;;;;14.86;71.63;100127.78;107346;1270;25294;-78
2022/06/01 02:46:24;;;;;;;4.10;3.70;;;;;;;14.77;71.98;100124.12;107326;1270;25250;-75
2022/06/01 02:48:52;;;;;;;5.10;3.50;;;;;;;14.73;72.08;100119.63;107452;1270;25385;-72
2022/06/01 02:51:19;;;;;;;3.50;3.20;;;;;;;14.70;72.26;100112.46;106919;1270;24301;-77
2022/06/01 02:53:46;;;;;;;4.70;3.10;;;;;;;14.71;72.22;100107.61;106348;1270;25248;-79
2022/06/01 02:56:14;;;;;;;3.60;3.30;;;;;;;14.74;72.10;100106.65;106238;1271;22519;-79
2022/06/01 02:58:41;;;;;;;7.20;4.00;;;;;;;14.76;71.89;100106.05;106333;1270;22529;-80
2022/06/01 03:01:08;;;;;;;5.10;3.40;;;;;;;14.76;71.67;100102.70;106199;1270;25356;-78
2022/06/01 03:03:35;;;;;;;4.60;3.10;;;;;;;14.72;71.68;100103.16;106094;1270;25493;-76
2022/06/01 03:06:03;;;;;;;3.80;3.40;;;;;;;14.70;71.79;100101.83;105709;1277;23768;-78
2022/06/01 03:08:30;;;;;;;5.40;3.80;;;;;;;14.66;71.78;100096.46;105927;1274;22529;-87
2022/06/01 03:10:57;;;;;;;5.90;3.50;;;;;;;14.69;71.99;100102.38;105956;1274;25343;-79
2022/06/01 03:13:24;;;;;;;4.30;3.70;;;;;;;14.69;71.68;100098.65;105870;1274;22538;-76
2022/06/01 03:15:53;;;;;;;4.60;3.60;;;;;;;14.67;71.78;100097.65;106029;1274;25146;-79
2022/06/01 03:18:21;;;;;;;3.60;3.30;;;;;;;14.66;71.71;100094.66;105921;1274;22535;-79
2022/06/01 03:20:47;;;;;;;4.70;4.10;;;;;;;14.67;71.74;100093.23;105749;1274;25305;-74
2022/06/01 03:23:15;;;;;;;4.10;3.60;;;;;;;14.66;71.69;100093.26;106078;1274;25672;-80
2022/06/01 03:25:42;;;;;;;4.30;3.50;;;;;;;14.66;71.62;100093.23;106295;1270;22575;-82
2022/06/01 03:28:09;;;;;;;3.90;3.30;;;;;;;14.68;71.71;100089.83;106317;1270;25362;-79
2022/06/01 03:30:36;;;;;;;5.40;3.80;;;;;;;14.69;71.50;100088.55;106212;1270;22699;-79
2022/06/01 03:33:03;;;;;;;5.70;3.90;;;;;;;14.71;71.58;100087.60;106375;1271;22677;-79
2022/06/01 03:35:32;;;;;;;4.00;3.60;;;;;;;14.67;71.57;100086.14;106098;1270;25966;-80
2022/06/01 03:38:00;;;;;;;4.10;3.70;;;;;;;14.68;71.89;100085.75;106278;1270;22532;-79
2022/06/01 03:40:31;;;;;;;5.10;4.20;;;;;;;14.71;71.75;100080.35;106231;1270;25526;-79
2022/06/01 03:42:59;;;;;;;4.40;3.90;;;;;;;14.70;71.92;100073.81;106424;1270;22544;-76
2022/06/01 03:48:14;;;;;;;4.40;4.00;;;;;;;14.76;71.70;100078.45;106196;1270;22528;-80
2022/06/01 03:50:42;;;;;;;4.40;3.90;;;;;;;14.77;71.86;100097.00;106231;1271;22550;-77
2022/06/01 03:53:09;;;;;;;4.10;3.70;;;;;;;14.78;71.61;100107.45;105740;1277;26504;-78
2022/06/01 03:55:36;;;;;;;5.40;4.10;;;;;;;14.78;71.64;100109.75;105949;1276;23519;-76
2022/06/01 03:58:04;;;;;;;4.80;4.40;;;;;;;14.71;71.56;100110.81;105802;1277;23921;-78
2022/06/01 04:00:31;;;;;;;4.60;4.10;;;;;;;14.70;71.76;100113.70;105881;1276;24263;-81
2022/06/01 04:02:58;;;;;;;6.10;4.40;;;;;;;14.72;71.95;100108.46;105723;1277;24294;-82
2022/06/01 04:05:25;;;;;;;6.40;4.20;;;;;;;14.74;72.08;100110.90;106039;1276;24106;-78
2022/06/01 04:07:52;;;;;;;4.80;4.40;;;;;;;14.79;71.99;100108.82;105922;1276;22555;-80
2022/06/01 04:10:20;;;;;;;5.60;4.60;;;;;;;14.82;72.21;100107.33;105931;1276;22695;-77
2022/06/01 04:12:47;;;;;;;5.00;4.40;;;;;;;14.85;72.23;100108.28;106212;1270;22625;-75
2022/06/01 04:15:15;;;;;;;5.60;4.80;;;;;;;14.86;72.18;100103.98;106322;1270;25321;-81
2022/06/01 04:17:42;;;;;;;4.90;4.40;;;;;;;14.90;72.19;100100.52;106120;1270;22525;-82
2022/06/01 04:20:10;;;;;;;5.00;4.50;;;;;;;14.93;72.23;100095.46;106200;1270;22610;-82
2022/06/01 04:22:42;;;;;;;5.20;4.70;;;;;;;14.94;72.08;100099.16;106266;1270;23640;-81
2022/06/01 04:25:13;;;;;;;5.00;4.50;;;;;;;14.99;72.17;100097.77;106737;1270;22541;-81
2022/06/01 04:27:40;;;;;;;6.90;5.60;;;;;;;15.05;72.28;100091.88;106279;1270;22537;-82
2022/06/01 04:30:09;;;;;;;6.80;5.20;;;;;;;15.10;72.37;100088.88;106334;1270;22607;-79
2022/06/01 04:32:37;;;;;;;12.20;9.30;;;;;;;15.13;72.25;100088.09;106150;1270;25405;-81
2022/06/01 04:35:06;;;;;;;8.50;6.00;;;;;;;15.14;72.14;100089.33;106364;1270;22526;-81
2022/06/01 04:37:34;;;;;;;8.00;5.20;;;;;;;15.13;72.18;100089.49;106254;1270;22534;-80
2022/06/01 04:40:09;;;;;;;11.30;4.80;;;;;;;15.16;72.34;100089.95;106334;1270;25251;-82
2022/06/01 04:42:38;;;;;;;7.90;5.60;;;;;;;15.20;72.19;100090.68;106221;1270;22537;-82
2022/06/01 04:45:07;;;;;;;7.90;5.80;;;;;;;15.26;72.08;100100.81;106220;1270;22709;-81
2022/06/01 04:47:33;;;;;;;6.40;5.20;;;;;;;15.31;72.03;100104.17;106161;1277;25448;-81
2022/06/01 04:50:00;;;;;;;6.30;5.70;;;;;;;15.30;71.85;100102.25;106020;1274;22567;-81
2022/06/01 04:52:27;;;;;;;6.60;5.70;;;;;;;15.31;71.76;100100.79;105959;1274;22538;-81
2022/06/01 04:54:54;;;;;;;7.80;5.80;;;;;;;15.37;71.65;100100.27;106169;1274;25251;-91
2022/06/01 04:57:21;;;;;;;5.50;5.10;;;;;;;15.37;71.34;100099.70;105902;1274;22547;-79
2022/06/01 04:59:48;;;;;;;6.20;4.90;;;;;;;15.37;71.38;100100.59;106047;1274;22621;-86
2022/06/01 05:02:15;;;;;;;7.80;5.80;;;;;;;15.30;71.29;100096.02;105777;1274;22522;-82
2022/06/01 05:04:42;;;;;;;7.30;5.70;;;;;;;15.29;71.51;100095.70;105550;1281;25251;-81
2022/06/01 05:07:09;;;;;;;7.00;6.10;;;;;;;15.33;71.76;100092.39;105898;1276;22551;-80
2022/06/01 05:09:36;;;;;;;6.80;6.10;;;;;;;15.39;71.74;100096.98;105954;1276;25249;-82
2022/06/01 05:12:03;;;;;;;7.70;6.10;;;;;;;15.46;71.77;100100.66;106135;1276;22531;-81
2022/06/01 05:14:30;;;;;;;7.20;6.50;;;;;;;15.49;71.93;100108.36;105918;1276;22535;-79
2022/06/01 05:17:01;;;;;;;5.80;5.20;;;;;;;15.52;71.86;100118.58;105963;1276;22550;-81
2022/06/01 05:19:28;;;;;;;7.50;5.50;;;;;;;15.48;71.81;100117.09;106205;1276;23220;-80
2022/06/01 05:21:57;;;;;;;9.00;6.50;;;;;;;15.42;71.61;100121.02;106349;1276;26515;-80
2022/06/01 05:24:24;;;;;;;7.20;6.30;;;;;;;15.30;71.76;100118.55;106796;1270;24295;-79
2022/06/01 05:26:51;;;;;;;11.40;7.00;;;;;;;15.22;71.78;100122.55;106794;1270;25233;-80
2022/06/01 05:29:18;;;;;;;9.90;7.00;;;;;;;15.08;71.87;100113.42;106402;1270;25372;-80
2022/06/01 05:31:45;;;;;;;7.30;6.50;;;;;;;15.08;72.42;100116.45;106276;1270;22831;-81
2022/06/01 05:34:12;;;;;;;8.20;6.70;;;;;;;15.06;72.50;100116.49;106184;1270;23947;-80
2022/06/01 05:36:38;;;;;;;8.40;7.00;;;;;;;15.04;72.65;100111.25;106322;1270;22612;-80
2022/06/01 05:39:05;;;;;;;7.00;6.40;;;;;;;15.03;72.85;100094.63;106457;1270;25289;-77
2022/06/01 05:41:33;;;;;;;6.80;6.10;;;;;;;15.03;72.97;100088.94;106264;1270;22598;-72
2022/06/01 05:44:00;;;;;;;6.60;6.00;;;;;;;14.98;72.86;100080.42;106536;1270;23520;-79
2022/06/01 05:46:27;;;;;;;7.20;6.40;;;;;;;14.91;72.93;100070.36;106513;1271;24243;-80
2022/06/01 05:48:53;;;;;;;8.20;5.80;;;;;;;14.90;73.47;100066.64;107396;1270;22529;-80
2022/06/01 05:51:21;;;;;;;7.20;6.50;;;;;;;14.91;73.58;100068.39;109574;1270;23228;-80
2022/06/01 05:53:48;;;;;;;7.50;6.70;;;;;;;14.91;73.51;100072.66;107345;1271;22557;-81
2022/06/01 05:56:15;;;;;;;7.00;6.30;;;;;;;14.93;73.73;100070.65;108227;1270;22629;-81
2022/06/01 05:58:42;;;;;;;6.80;5.90;;;;;;;14.92;73.48;100058.27;109277;1270;22471;-80
2022/06/01 06:01:09;;;;;;;7.50;5.90;;;;;;;14.97;73.50;100041.08;108519;1270;22568;-80
2022/06/01 06:03:36;;;;;;;6.90;6.20;;;;;;;15.03;73.61;100034.31;107564;1270;25847;-79
2022/06/01 06:06:13;;;;;;;6.80;6.20;;;;;;;15.07;73.44;100049.79;106860;1270;24378;-82
2022/06/01 06:08:52;;;;;;;7.00;6.20;;;;;;;15.19;73.71;100099.98;106599;1270;25361;-81
2022/06/01 06:11:25;;;;;;;8.90;6.50;;;;;;;15.32;74.13;100123.12;106239;1271;25427;-81
2022/06/01 06:13:55;;;;;;;7.60;6.40;;;;;;;15.37;73.23;100105.91;106644;1270;24216;-81
2022/06/01 06:16:22;;;;;;;7.50;6.80;;;;;;;15.35;73.42;100087.17;106414;1270;22698;-82
2022/06/01 06:18:51;;;;;;;7.70;6.90;;;;;;;15.39;73.24;100087.95;106408;1270;22872;-82
2022/06/01 06:21:18;;;;;;;9.10;6.90;;;;;;;15.46;73.46;100091.42;106619;1270;22546;-82
2022/06/01 06:23:45;;;;;;;8.40;7.60;;;;;;;15.53;73.15;100083.93;106561;1271;22714;-82
2022/06/01 06:26:12;;;;;;;7.60;5.60;;;;;;;15.55;72.90;100070.71;106847;1270;22525;-81
2022/06/01 06:28:39;;;;;;;6.70;5.30;;;;;;;15.55;72.19;100077.11;107002;1270;25654;-82
2022/06/01 06:31:06;;;;;;;5.80;5.20;;;;;;;15.50;71.87;100094.84;106657;1270;24261;-78
2022/06/01 06:33:33;;;;;;;10.40;6.00;;;;;;;15.49;72.02;100107.48;106205;1270;22566;-80
2022/06/01 06:36:05;;;;;;;5.90;5.30;;;;;;;15.50;72.16;100119.15;106298;1270;22525;-81
2022/06/01 06:38:35;;;;;;;5.50;5.00;;;;;;;15.45;72.13;100134.39;106399;1270;24229;-80
2022/06/01 06:41:04;;;;;;;6.20;5.30;;;;;;;15.41;72.29;100146.95;106427;1269;22829;-80
2022/06/01 06:43:33;;;;;;;6.70;5.20;;;;;;;15.36;72.09;100144.09;106298;1270;24322;-79
2022/06/01 06:46:04;;;;;;;8.80;6.00;;;;;;;15.41;72.57;100142.36;106519;1270;22556;-82
2022/06/01 06:48:31;;;;;;;7.10;6.20;;;;;;;15.47;72.84;100139.48;106259;1271;22543;-81
2022/06/01 06:50:58;;;;;;;6.80;6.10;;;;;;;15.54;72.73;100139.41;106641;1270;22560;-81
2022/06/01 06:53:26;;;;;;;7.40;6.30;;;;;;;15.54;72.26;100137.11;106160;1274;22538;-80
2022/06/01 06:55:53;;;;;;;9.10;5.20;;;;;;;15.50;71.94;100135.29;106063;1274;25233;-81
2022/06/01 06:58:21;;;;;;;8.10;5.80;;;;;;;15.46;72.01;100123.90;105945;1276;22865;-81
2022/06/01 07:00:48;;;;;;;6.20;5.10;;;;;;;15.45;71.86;100125.87;105458;1281;22505;-79
2022/06/01 07:03:15;;;;;;;5.50;5.00;;;;;;;15.44;71.75;100127.17;105398;1281;22709;-82
2022/06/01 07:08:29;;;;;;;6.40;5.00;;;;;;;15.41;71.43;100111.11;105754;1281;22554;-81
2022/06/01 07:10:58;;;;;;;12.30;5.50;;;;;;;15.36;71.20;100110.91;105550;1276;22564;-82
2022/06/01 07:13:27;;;;;;;10.10;6.00;;;;;;;15.39;71.70;100114.73;105815;1276;22764;-82
2022/06/01 07:16:11;;;;;;;9.90;5.70;;;;;;;15.46;71.79;100124.27;106023;1274;24263;-82
2022/06/01 07:18:41;;;;;;;5.40;4.60;;;;;;;15.48;71.61;100123.29;106031;1270;25855;-82
2022/06/01 07:21:08;;;;;;;6.90;4.80;;;;;;;15.50;71.64;100123.58;106590;1270;24256;-83
2022/06/01 07:23:38;;;;;;;6.50;4.80;;;;;;;15.60;71.71;100127.89;106382;1270;23214;-83
2022/06/01 07:26:08;;;;;;;5.80;4.80;;;;;;;15.67;71.51;100137.05;106472;1270;24292;-83
2022/06/01 07:28:35;;;;;;;4.10;3.70;;;;;;;15.64;70.80;100135.54;106316;1270;25248;-80
2022/06/01 07:31:04;;;;;;;5.00;4.50;;;;;;;15.60;70.69;100137.61;106477;1271;24517;-80
2022/06/01 07:33:31;;;;;;;6.20;5.20;;;;;;;15.64;70.78;100137.13;106427;1270;22534;-81
2022/06/01 07:36:01;;;;;;;5.90;5.10;;;;;;;15.75;71.22;100137.12;106454;1270;22884;-83
2022/06/01 07:44:15;;;;;;;7.10;6.10;;;;;;;16.15;71.67;100115.48;106337;1270;26479;-84
2022/06/01 07:46:42;;;;;;;7.10;5.90;;;;;;;16.34;71.68;100117.83;106491;1270;25517;-82
2022/06/01 07:49:15;;;;;;;7.70;5.70;;;;;;;16.48;71.41;100107.71;106737;1270;22550;-84
2022/06/01 07:52:03;;;;;;;7.80;7.00;;;;;;;16.60;70.90;100107.41;106597;1270;24840;-81
2022/06/01 07:54:30;;;;;;;6.50;5.70;;;;;;;16.69;70.78;100104.96;106306;1270;22534;-85
2022/06/01 07:56:57;;;;;;;7.90;5.50;;;;;;;16.73;70.58;100107.80;106335;1270;24467;-84
2022/06/01 07:59:24;;;;;;;8.50;6.10;;;;;;;16.80;70.50;100102.89;106263;1270;24169;-84
2022/06/01 08:01:51;;;;;;;7.40;6.00;;;;;;;16.86;70.13;100109.80;106426;1271;26010;-83
2022/06/01 08:04:19;;;;;;;6.20;5.50;;;;;;;16.94;70.12;100118.03;106339;1270;22566;-83
2022/06/01 08:06:47;;;;;;;7.50;6.00;;;;;;;17.00;69.85;100132.53;106469;1270;26494;-83
2022/06/01 08:09:22;;;;;;;6.80;6.10;;;;;;;17.05;69.75;100132.36;106381;1270;22688;-83
2022/06/01 08:14:34;;;;;;;8.30;6.20;;;;;;;17.07;69.41;100134.04;107631;1270;22530;-81
2022/06/01 08:17:02;;;;;;;5.20;4.80;;;;;;;17.00;69.69;100130.77;106468;1270;22543;-83
2022/06/01 08:19:29;;;;;;;5.00;4.50;;;;;;;16.93;69.23;100125.35;106328;1271;22572;-81
2022/06/01 08:21:57;;;;;;;6.40;5.60;;;;;;;16.94;69.10;100128.14;106312;1270;22541;-83
2022/06/01 08:24:24;;;;;;;7.00;6.20;;;;;;;16.96;69.27;100123.65;106334;1271;22535;-84
2022/06/01 08:26:51;;;;;;;7.10;6.40;;;;;;;16.95;69.57;100121.55;105886;1276;22760;-83
2022/06/01 08:29:18;;;;;;;7.20;6.50;;;;;;;16.94;69.91;100113.92;105879;1276;22623;-83
2022/06/01 08:31:45;;;;;;;8.10;6.90;;;;;;;16.97;70.33;100110.95;105944;1275;22658;-82
2022/06/01 08:34:15;;;;;;;7.20;6.50;;;;;;;17.03;70.40;100104.48;105675;1276;25261;-83
2022/06/01 08:36:43;;;;;;;7.70;6.80;;;;;;;17.07;70.37;100108.97;105870;1275;25408;-83
2022/06/01 08:39:10;;;;;;;8.70;7.10;;;;;;;17.12;70.10;100111.28;105851;1276;25241;-83
2022/06/01 08:41:38;;;;;;;7.30;6.60;;;;;;;17.20;70.13;100105.97;105688;1277;22605;-82
2022/06/01 08:44:21;;;;;;;9.70;6.30;;;;;;;17.32;69.63;100113.11;105830;1276;25567;-83
2022/06/01 08:46:49;;;;;;;6.60;5.70;;;;;;;17.41;69.22;100109.00;106287;1271;25178;-81
2022/06/01 08:49:33;;;;;;;6.30;5.70;;;;;;;17.46;68.43;100102.59;106209;1271;22939;-84
2022/06/01 08:52:00;;;;;;;5.30;4.80;;;;;;;17.54;67.85;100110.09;106168;1273;22534;-84
2022/06/01 08:54:27;;;;;;;5.80;5.10;;;;;;;17.55;67.85;100096.67;105880;1278;22552;-86
2022/06/01 08:57:06;;;;;;;8.80;4.90;;;;;;;17.50;67.37;100089.07;105954;1278;25476;-84
2022/06/01 08:59:59;;;;;;;4.70;4.00;;;;;;;17.42;67.02;100076.95;106914;1279;22745;-81
2022/06/01 09:02:41;;;;;;;4.70;4.00;;;;;;;17.30;66.48;100068.91;107942;1277;22571;-83
2022/06/01 09:05:16;;;;;;;5.00;3.70;;;;;;;17.24;66.32;100068.27;107790;1278;22771;-83
2022/06/01 09:08:01;;;;;;;4.20;3.60;;;;;;;17.21;65.91;100071.95;108862;1278;22575;-83
2022/06/01 09:10:55;;;;;;;4.60;4.10;;;;;;;17.22;66.42;100081.89;108583;1278;23346;-84
2022/06/01 09:13:26;;;;;;;4.20;3.80;;;;;;;17.35;66.94;100090.58;107400;1273;25313;-82
2022/06/01 09:16:10;;;;;;;4.50;3.80;;;;;;;17.44;67.18;100096.46;106007;1278;22554;-84
2022/06/01 09:19:16;;;;;;;6.50;4.20;;;;;;;17.45;67.14;100102.79;105728;1279;22541;-83
2022/06/01 09:24:45;;;;;;;4.80;4.30;;;;;;;17.74;66.99;100111.20;106324;1278;25569;-82
2022/06/01 09:27:14;;;;;;;3.50;3.20;;;;;;;18.01;66.76;100103.61;106025;1276;24143;-82
2022/06/01 09:29:51;;;;;;;5.10;4.50;;;;;;;18.13;65.71;100102.20;105859;1276;25733;-82
2022/06/01 09:32:31;;;;;;;4.40;4.00;;;;;;;18.06;65.65;100099.11;105769;1276;22752;-83
2022/06/01 09:35:02;;;;;;;4.40;3.10;;;;;;;18.06;65.73;100096.45;106177;1270;24440;-84
2022/06/01 09:37:36;;;;;;;6.90;3.60;;;;;;;18.02;65.43;100101.61;106074;1270;24222;-82
2022/06/01 09:40:18;;;;;;;6.40;3.00;;;;;;;17.96;65.14;100100.96;106330;1270;23829;-84
2022/06/01 09:42:49;;;;;;;3.30;2.80;;;;;;;17.88;65.08;100100.98;106498;1270;22595;-82
2022/06/01 09:45:29;;;;;;;4.00;3.10;;;;;;;17.89;65.10;100100.92;106352;1271;24158;-83
2022/06/01 09:48:14;;;;;;;6.50;3.60;;;;;;;17.90;65.17;100104.78;106449;1270;25570;-84
2022/06/01 09:50:45;;;;;;;3.70;2.40;;;;;;;18.02;65.07;100113.19;106271;1270;22541;-85
2022/06/01 09:53:19;;;;;;;3.80;3.40;;;;;;;18.05;64.81;100112.13;106688;1270;25448;-83
2022/06/01 09:56:04;;;;;;;3.70;3.10;;;;;;;18.19;65.46;100120.67;106316;1270;22885;-85
2022/06/01 10:06:57;;;;;;;3.90;2.90;;;;;;;18.68;64.40;100128.41;106402;1270;22748;-82
2022/06/01 10:09:30;;;;;;;3.20;2.70;;;;;;;18.59;64.11;100124.20;106491;1270;25396;-84
2022/06/01 10:12:47;;;;;;;2.90;2.50;;;;;;;18.77;64.05;100127.65;106082;1270;22531;-85
2022/06/01 10:15:32;;;;;;;3.70;2.90;;;;;;;18.92;63.71;100127.45;105765;1277;22685;-86
2022/06/01 10:18:13;;;;;;;3.10;2.90;;;;;;;18.96;63.60;100133.54;106188;1271;22525;-85
2022/06/01 10:20:52;;;;;;;3.40;2.90;;;;;;;19.05;63.22;100129.52;106120;1270;22538;-83
2022/06/01 10:23:24;;;;;;;2.60;2.40;;;;;;;19.10;62.91;100130.92;106355;1270;25519;-83
2022/06/01 10:26:00;;;;;;;2.50;2.30;;;;;;;19.06;62.32;100130.89;106255;1272;22531;-83
2022/06/01 10:28:46;;;;;;;5.40;2.70;;;;;;;18.97;62.21;100133.83;106472;1270;22602;-83
2022/06/01 10:31:31;;;;;;;2.40;2.20;;;;;;;18.95;62.22;100140.67;105821;1277;25238;-83
2022/06/01 10:34:04;;;;;;;3.60;2.60;;;;;;;18.98;62.00;100132.71;106004;1276;26480;-83
2022/06/01 10:36:41;;;;;;;3.00;2.40;;;;;;;19.17;61.76;100125.20;105878;1276;22561;-85
2022/06/01 10:39:16;;;;;;;3.70;2.70;;;;;;;19.31;62.09;100126.13;105866;1276;23753;-84
2022/06/01 10:42:01;;;;;;;3.50;2.40;;;;;;;19.58;61.21;100130.67;106006;1277;22616;-84
2022/06/01 10:44:32;;;;;;;3.40;2.70;;;;;;;19.55;60.55;100130.10;105859;1276;25306;-85
2022/06/01 10:47:18;;;;;;;2.30;2.10;;;;;;;19.52;60.30;100125.27;106013;1276;22640;-86
2022/06/01 10:49:52;;;;;;;;;;;;;;;19.58;61.03;100121.73;106064;1271;25295;-85
2022/06/01 10:52:42;;;;;;;2.70;2.20;;;;;;;19.84;60.78;100117.55;106455;1270;24288;-84
2022/06/01 10:55:18;;;;;;;2.50;1.90;;;;;;;20.24;60.23;100117.47;106596;1270;22705;-86
2022/06/01 10:57:48;;;;;;;2.70;2.30;;;;;;;20.47;58.73;100106.91;106670;1270;24220;-84
2022/06/01 11:00:19;;;;;;;2.00;1.80;;;;;;;20.36;58.48;100115.04;106680;1270;22687;-84
2022/06/01 11:02:55;;;;;;;4.00;2.40;;;;;;;20.43;58.92;100112.30;106730;1270;25283;-84
2022/06/01 11:05:44;;;;;;;2.10;1.90;;;;;;;20.56;58.17;100108.63;106653;1270;22542;-83
2022/06/01 11:08:43;;;;;;;1.70;1.60;;;;;;;20.54;56.64;100115.69;106906;1270;22814;-83
2022/06/01 11:11:30;;;;;;;2.00;1.90;;;;;;;20.11;56.24;100116.01;107718;1270;25317;-84
2022/06/01 11:14:10;;;;;;;2.20;1.80;;;;;;;20.13;57.05;100116.63;108158;1270;25407;-83
2022/06/01 11:16:58;;;;;;;2.30;2.10;;;;;;;20.18;57.02;100122.96;108477;1270;22628;-83
2022/06/01 11:19:41;;;;;;;2.30;1.80;;;;;;;20.45;56.79;100110.26;108080;1270;25328;-83
2022/06/01 11:22:24;;;;;;;6.50;1.60;;;;;;;20.78;56.36;100105.60;108213;1270;22612;-84
2022/06/01 11:25:15;;;;;;;3.70;1.70;;;;;;;21.06;55.52;100102.27;107368;1271;25356;-84
2022/06/01 11:27:42;;;;;;;2.20;1.50;;;;;;;21.36;55.09;100098.54;106943;1270;22546;-84
2022/06/01 11:30:14;;;;;;;1.60;1.50;;;;;;;21.66;54.65;100092.15;106549;1270;22560;-85
2022/06/01 11:33:00;;;;;;;1.80;1.20;;;;;;;21.95;53.83;100084.85;106398;1270;24802;-82
2022/06/01 11:35:48;;;;;;;1.40;1.30;;;;;;;22.25;51.79;100078.71;106482;1270;24333;-83
2022/06/01 11:38:26;;;;;;;1.60;1.40;;;;;;;22.24;50.48;100083.22;106493;1269;253874;-91
2022/06/01 11:41:10;;;;;;;2.00;1.20;;;;;;;21.83;49.81;100078.95;106751;1270;22543;-85
2022/06/01 11:43:39;;;;;;;2.50;1.30;;;;;;;21.46;50.66;100087.59;106422;1271;22570;-82
2022/06/01 11:46:35;;;;;;;1.80;1.40;;;;;;;21.13;50.16;100082.54;106498;1270;22525;-83
2022/06/01 11:49:10;;;;;;;1.70;1.40;;;;;;;20.83;50.95;100087.27;106283;1270;25377;-81
2022/06/01 11:51:37;;;;;;;2.00;1.80;;;;;;;20.64;51.45;100077.59;106586;1270;22544;-85
2022/06/01 11:54:09;;;;;;;4.80;1.50;;;;;;;20.48;51.88;100082.02;106798;1270;22591;-84
2022/06/01 11:56:42;;;;;;;2.90;1.50;;;;;;;20.30;52.25;100081.40;107070;1271;22690;-85
2022/06/01 11:59:15;;;;;;;3.50;1.20;;;;;;;20.07;52.54;100084.95;106576;1273;22571;-84
2022/06/01 12:01:45;;;;;;;2.40;1.40;;;;;;;19.87;53.13;100087.20;106706;1270;25200;-88
2022/06/01 12:04:38;;;;;;;3.50;1.70;;;;;;;19.74;54.01;100085.94;106918;1270;22712;-87
2022/06/01 12:07:11;;;;;;;3.20;1.80;;;;;;;19.61;54.50;100093.93;107471;1270;25448;-83
2022/06/01 12:09:49;;;;;;;2.10;1.50;;;;;;;19.49;55.46;100095.95;107925;1270;22630;-82